Time;durP1;ratioP1;P1;durP2;ratioP2;P2;SDS_P1;SDS_P2;PMS_P1;PMS_P2;Temp;Humidity;BMP_temperature;BMP_pressure;BME280_temperature;BME280_humidity;BME280_pressure;Samples;Min_cycle;Max_cycle;Signal;HPM_P1;HPM_P2
2023/01/26 00:01:44;;;;;;;;;;;2.20;83.30;;;;;;5095128;28;20390;-37
2023/01/26 00:04:10;;;;;;;;;;;2.20;83.20;;;;;;5094977;28;20098;-36
2023/01/26 00:06:35;;;;;;;;;;;2.20;83.30;;;;;;5094866;28;19912;-39
2023/01/26 00:09:01;;;;;;;;;;;2.20;83.30;;;;;;5094586;28;19935;-36
2023/01/26 00:11:28;;;;;;;;;;;2.20;83.30;;;;;;5094543;28;19916;-38
2023/01/26 00:13:54;;;;;;;;;;;2.20;83.20;;;;;;5094390;28;19916;-38
2023/01/26 00:16:20;;;;;;;;;;;2.30;83.30;;;;;;5094259;28;20011;-36
2023/01/26 00:18:46;;;;;;;;;;;2.30;83.30;;;;;;5094736;28;19951;-39
2023/01/26 00:21:16;;;;;;;;;;;2.30;83.20;;;;;;5094242;28;20493;-35
2023/01/26 00:23:42;;;;;;;;;;;2.30;83.30;;;;;;5094265;28;19916;-35
2023/01/26 00:26:08;;;;;;;;;;;2.20;83.20;;;;;;5094511;28;19943;-35
2023/01/26 00:28:34;;;;;;;;;;;2.20;83.30;;;;;;5094217;28;19915;-37
2023/01/26 00:31:19;;;;;;;;;;;2.20;83.40;;;;;;5094101;28;19919;-35
2023/01/26 00:33:44;;;;;;;;;;;2.20;83.40;;;;;;5094216;28;20393;-36
2023/01/26 00:36:10;;;;;;;;;;;2.20;83.40;;;;;;5094089;28;19963;-36
2023/01/26 00:38:35;;;;;;;;;;;2.20;83.40;;;;;;5094064;28;20006;-37
2023/01/26 00:41:01;;;;;;;;;;;2.20;83.40;;;;;;5094206;28;19916;-36
2023/01/26 00:43:27;;;;;;;;;;;2.20;83.40;;;;;;5093017;28;19916;-39
2023/01/26 00:45:52;;;;;;;;;;;2.20;83.50;;;;;;5094197;28;19985;-36
2023/01/26 00:48:18;;;;;;;;;;;2.20;83.60;;;;;;5093790;28;19976;-36
2023/01/26 00:50:43;;;;;;;;;;;2.20;83.50;;;;;;5093915;28;19912;-36
2023/01/26 00:53:09;;;;;;;;;;;2.20;83.50;;;;;;5093777;28;19973;-37
2023/01/26 00:55:34;;;;;;;;;;;2.10;83.50;;;;;;5094208;28;19912;-41
2023/01/26 00:58:07;;;;;;;;;;;2.10;83.50;;;;;;5093657;28;19912;-35
2023/01/26 01:00:33;;;;;;;;;;;2.10;83.50;;;;;;5093446;28;20012;-37
2023/01/26 01:02:59;;;;;;;;;;;2.10;83.60;;;;;;5093569;28;20379;-50
2023/01/26 01:05:25;;;;;;;;;;;2.10;83.50;;;;;;5093691;28;20042;-38
2023/01/26 01:07:51;;;;;;;;;;;2.10;83.70;;;;;;5093264;28;19919;-36
2023/01/26 01:10:17;;;;;;;;;;;2.10;83.80;;;;;;5093403;28;19996;-38
2023/01/26 01:12:42;;;;;;;;;;;2.10;83.80;;;;;;5093593;28;19969;-36
2023/01/26 01:15:08;;;;;;;;;;;2.10;83.70;;;;;;5093670;28;20383;-36
2023/01/26 01:17:35;;;;;;;;;;;2.10;83.70;;;;;;5092807;28;19924;-36
2023/01/26 01:20:04;;;;;;;;;;;2.10;83.70;;;;;;5091816;28;19916;-36
2023/01/26 01:22:30;;;;;;;;;;;2.20;83.80;;;;;;5093005;28;19912;-37
2023/01/26 01:24:56;;;;;;;;;;;2.20;83.70;;;;;;5093108;28;19912;-36
2023/01/26 01:27:21;;;;;;;;;;;2.20;83.70;;;;;;5092943;28;19912;-38
2023/01/26 01:29:48;;;;;;;;;;;2.20;83.80;;;;;;5093068;28;19912;-36
2023/01/26 01:32:14;;;;;;;;;;;2.20;83.70;;;;;;5092966;28;19957;-36
2023/01/26 01:34:39;;;;;;;;;;;2.20;83.80;;;;;;5093063;28;19920;-36
2023/01/26 01:37:05;;;;;;;;;;;2.30;83.80;;;;;;5092823;28;19912;-36
2023/01/26 01:39:30;;;;;;;;;;;2.30;83.80;;;;;;5092937;28;20019;-40
2023/01/26 01:41:56;;;;;;;;;;;2.30;83.80;;;;;;5091369;28;19920;-43
2023/01/26 01:44:22;;;;;;;;;;;2.30;83.80;;;;;;5091429;28;19912;-36
2023/01/26 01:47:01;;;;;;;;;;;2.30;83.70;;;;;;5092889;28;19912;-37
2023/01/26 01:49:30;;;;;;;;;;;2.20;83.80;;;;;;5092825;28;19916;-37
2023/01/26 01:52:05;;;;;;;;;;;2.20;83.90;;;;;;5092544;28;19913;-36
2023/01/26 01:54:36;;;;;;;;;;;2.20;83.90;;;;;;5092292;28;19912;-36
2023/01/26 01:57:05;;;;;;;;;;;2.20;83.90;;;;;;5092332;28;19916;-37
2023/01/26 01:59:31;;;;;;;;;;;2.20;84.00;;;;;;5092145;28;19923;-40
2023/01/26 02:01:57;;;;;;;;;;;2.20;84.00;;;;;;5092395;28;19916;-37
2023/01/26 02:04:23;;;;;;;;;;;2.20;84.00;;;;;;5092260;28;19912;-36
2023/01/26 02:06:54;;;;;;;;;;;2.20;84.00;;;;;;5092521;28;19919;-36
2023/01/26 02:12:09;;;;;;;;;;;2.20;84.00;;;;;;5092433;28;20444;-36
2023/01/26 02:14:34;;;;;;;;;;;2.20;84.00;;;;;;5091994;28;19923;-36
2023/01/26 02:16:59;;;;;;;;;;;2.20;84.00;;;;;;5091778;28;20361;-36
2023/01/26 02:19:30;;;;;;;;;;;2.20;84.00;;;;;;5091940;28;20016;-36
2023/01/26 02:21:56;;;;;;;;;;;2.30;84.00;;;;;;5092272;28;20244;-36
2023/01/26 02:24:25;;;;;;;;;;;2.20;84.00;;;;;;5091712;28;19912;-45
2023/01/26 02:26:52;;;;;;;;;;;2.20;84.00;;;;;;5091842;28;19951;-40
2023/01/26 02:29:17;;;;;;;;;;;2.20;84.10;;;;;;5091785;28;19966;-39
2023/01/26 02:31:43;;;;;;;;;;;2.20;84.00;;;;;;5091987;28;19912;-37
2023/01/26 02:34:08;;;;;;;;;;;2.20;84.10;;;;;;5091677;28;20209;-37
2023/01/26 02:36:34;;;;;;;;;;;2.20;84.10;;;;;;5091974;28;19912;-36
2023/01/26 02:39:11;;;;;;;;;;;2.30;84.10;;;;;;5091986;28;19916;-35
2023/01/26 02:44:22;;;;;;;;;;;2.30;84.70;;;;;;5091944;28;19919;-36
2023/01/26 02:46:47;;;;;;;;;;;2.30;84.00;;;;;;5091623;28;20012;-37
2023/01/26 02:51:57;;;;;;;;;;;2.30;84.10;;;;;;5091888;28;19923;-38
2023/01/26 02:57:06;;;;;;;;;;;2.30;84.10;;;;;;5091776;28;20030;-45
2023/01/26 02:59:32;;;;;;;;;;;2.30;84.30;;;;;;5090231;28;20034;-35
2023/01/26 03:01:57;;;;;;;;;;;2.30;84.30;;;;;;5091661;28;19912;-37
2023/01/26 03:04:23;;;;;;;;;;;2.30;84.30;;;;;;5091331;28;19999;-34
2023/01/26 03:06:48;;;;;;;;;;;2.30;84.30;;;;;;5093996;28;19912;-37
2023/01/26 03:09:14;;;;;;;;;;;2.30;84.30;;;;;;5095392;28;19962;-34
2023/01/26 03:11:42;;;;;;;;;;;2.30;84.30;;;;;;5095631;28;19913;-36
2023/01/26 03:14:08;;;;;;;;;;;2.20;84.20;;;;;;5095462;28;19912;-38
2023/01/26 03:16:34;;;;;;;;;;;2.20;84.30;;;;;;5095348;28;20020;-34
2023/01/26 03:29:41;;;;;;;;;;;2.10;84.50;;;;;;5095063;28;20003;-37
2023/01/26 03:32:06;;;;;;;;;;;2.10;84.50;;;;;;5095026;28;19959;-38
2023/01/26 03:34:32;;;;;;;;;;;2.10;84.50;;;;;;5095008;28;19912;-39
2023/01/26 03:36:57;;;;;;;;;;;2.10;84.50;;;;;;5094974;28;19912;-38
2023/01/26 03:56:18;;;;;;;;;;;2.20;84.70;;;;;;5094788;28;19920;-36
2023/01/26 03:58:44;;;;;;;;;;;2.20;84.60;;;;;;5094399;28;19912;-36
2023/01/26 04:01:17;;;;;;;;;;;2.20;84.70;;;;;;5094224;28;19916;-36
2023/01/26 04:09:11;;;;;;;;;;;2.10;84.70;;;;;;5094528;28;19938;-35
2023/01/26 04:11:37;;;;;;;;;;;2.10;84.70;;;;;;5094664;28;19916;-36
2023/01/26 04:22:15;;;;;;;;;;;2.10;84.90;;;;;;5094328;28;19958;-36
2023/01/26 04:24:40;;;;;;;;;;;2.10;85.00;;;;;;5094468;28;20343;-34
2023/01/26 04:27:06;;;;;;;;;;;2.10;85.00;;;;;;5094277;28;19959;-36
2023/01/26 04:29:31;;;;;;;;;;;2.10;84.90;;;;;;5094113;28;19919;-36
2023/01/26 04:31:57;;;;;;;;;;;2.10;84.90;;;;;;5094189;28;20367;-37
2023/01/26 04:34:22;;;;;;;;;;;2.10;84.90;;;;;;5094331;28;19965;-42
2023/01/26 04:36:48;;;;;;;;;;;2.10;84.90;;;;;;5094360;28;19947;-36
2023/01/26 04:39:13;;;;;;;;;;;2.10;85.00;;;;;;5094059;28;19912;-36
2023/01/26 04:41:39;;;;;;;;;;;2.10;85.00;;;;;;5094437;28;19923;-36
2023/01/26 04:44:04;;;;;;;;;;;2.20;85.10;;;;;;5094268;28;19954;-37
2023/01/26 04:46:31;;;;;;;;;;;2.20;85.00;;;;;;5094188;28;19961;-41
2023/01/26 04:48:57;;;;;;;;;;;2.20;85.00;;;;;;5093952;28;19989;-38
2023/01/26 04:51:23;;;;;;;;;;;2.20;85.00;;;;;;5093930;28;20374;-36
2023/01/26 04:53:49;;;;;;;;;;;2.20;85.00;;;;;;5092566;28;20363;-38
2023/01/26 04:56:19;;;;;;;;;;;2.30;85.00;;;;;;5093975;28;19966;-36
2023/01/26 04:58:44;;;;;;;;;;;2.30;85.00;;;;;;5093749;28;19912;-36
2023/01/26 05:01:10;;;;;;;;;;;2.30;85.00;;;;;;5093851;28;20321;-35
2023/01/26 05:03:35;;;;;;;;;;;2.30;84.90;;;;;;5093554;28;19912;-36
2023/01/26 05:06:01;;;;;;;;;;;2.30;84.90;;;;;;5093487;28;19919;-36
2023/01/26 05:08:26;;;;;;;;;;;2.30;84.90;;;;;;5093501;28;20476;-36
2023/01/26 05:10:52;;;;;;;;;;;2.30;85.00;;;;;;5093510;28;19955;-36
2023/01/26 05:13:17;;;;;;;;;;;2.30;85.00;;;;;;5093173;28;19931;-43
2023/01/26 05:15:43;;;;;;;;;;;2.40;85.10;;;;;;5093282;28;19912;-38
2023/01/26 05:18:09;;;;;;;;;;;2.40;85.00;;;;;;5093119;28;19976;-38
2023/01/26 05:20:35;;;;;;;;;;;2.40;85.10;;;;;;5093089;28;19916;-36
2023/01/26 05:23:00;;;;;;;;;;;2.40;85.10;;;;;;5093069;28;19912;-35
2023/01/26 05:25:26;;;;;;;;;;;2.40;85.10;;;;;;5093002;28;19916;-35
2023/01/26 05:27:52;;;;;;;;;;;2.40;85.00;;;;;;5093269;28;19958;-37
2023/01/26 05:30:18;;;;;;;;;;;2.40;85.00;;;;;;5092498;28;19912;-36
2023/01/26 05:32:43;;;;;;;;;;;2.40;85.00;;;;;;5092911;28;19912;-38
2023/01/26 05:35:09;;;;;;;;;;;2.40;85.10;;;;;;5092783;28;20003;-36
2023/01/26 05:37:34;;;;;;;;;;;2.40;85.20;;;;;;5092791;28;20022;-36
2023/01/26 05:40:00;;;;;;;;;;;2.50;85.20;;;;;;5092605;28;19916;-36
2023/01/26 05:42:26;;;;;;;;;;;2.50;85.10;;;;;;5092645;28;19916;-35
2023/01/26 05:44:51;;;;;;;;;;;2.50;85.10;;;;;;5092762;28;19994;-35
2023/01/26 05:47:17;;;;;;;;;;;2.50;85.10;;;;;;5092759;28;19939;-36
2023/01/26 05:49:44;;;;;;;;;;;2.50;85.10;;;;;;5092454;28;19999;-45
2023/01/26 05:52:11;;;;;;;;;;;2.40;85.10;;;;;;5092764;28;19912;-36
2023/01/26 05:54:37;;;;;;;;;;;2.50;85.20;;;;;;5091158;28;19912;-39
2023/01/26 05:57:02;;;;;;;;;;;2.50;85.30;;;;;;5092436;28;20268;-36
2023/01/26 05:59:28;;;;;;;;;;;2.50;85.30;;;;;;5092485;28;19923;-38
2023/01/26 06:01:54;;;;;;;;;;;2.50;85.20;;;;;;5092497;28;20299;-36
2023/01/26 06:04:20;;;;;;;;;;;2.50;85.20;;;;;;5092636;28;20256;-37
2023/01/26 06:06:46;;;;;;;;;;;2.50;85.20;;;;;;5092427;28;19923;-36
2023/01/26 06:09:11;;;;;;;;;;;2.50;85.20;;;;;;5092665;28;20433;-39
2023/01/26 06:11:36;;;;;;;;;;;2.60;85.30;;;;;;5092235;28;19954;-36
2023/01/26 06:14:02;;;;;;;;;;;2.60;85.20;;;;;;5092311;28;19935;-36
2023/01/26 06:16:28;;;;;;;;;;;2.60;85.20;;;;;;5092291;28;20018;-42
2023/01/26 06:18:53;;;;;;;;;;;2.60;85.30;;;;;;5092275;28;20331;-37
2023/01/26 06:21:19;;;;;;;;;;;2.60;85.30;;;;;;5091979;28;19912;-34
2023/01/26 06:23:44;;;;;;;;;;;2.60;85.30;;;;;;5092508;28;19995;-36
2023/01/26 06:26:10;;;;;;;;;;;2.60;85.30;;;;;;5092371;28;20280;-39
2023/01/26 06:28:35;;;;;;;;;;;2.60;85.30;;;;;;5092064;28;19915;-36
2023/01/26 06:31:02;;;;;;;;;;;2.50;85.20;;;;;;5092016;28;19908;-36
2023/01/26 06:33:28;;;;;;;;;;;2.50;85.30;;;;;;5091845;28;19908;-37
2023/01/26 06:35:54;;;;;;;;;;;2.50;85.30;;;;;;5091907;28;19915;-36
2023/01/26 06:38:20;;;;;;;;;;;2.50;85.40;;;;;;5091953;28;19908;-38
2023/01/26 06:40:45;;;;;;;;;;;2.60;85.40;;;;;;5090754;28;19920;-37
2023/01/26 06:43:11;;;;;;;;;;;2.60;85.40;;;;;;5091957;28;20007;-37
2023/01/26 06:45:36;;;;;;;;;;;2.60;85.40;;;;;;5091972;28;19950;-39
2023/01/26 06:48:02;;;;;;;;;;;2.60;85.40;;;;;;5091862;28;19908;-38
2023/01/26 06:50:30;;;;;;;;;;;2.60;85.40;;;;;;5091951;28;20329;-36
2023/01/26 06:52:57;;;;;;;;;;;2.60;85.40;;;;;;5091679;28;19922;-37
2023/01/26 06:55:28;;;;;;;;;;;2.60;85.50;;;;;;5092159;28;19919;-37
2023/01/26 06:57:54;;;;;;;;;;;2.60;85.40;;;;;;5091692;28;19915;-37
2023/01/26 07:00:19;;;;;;;;;;;2.70;85.40;;;;;;5091604;28;20359;-37
2023/01/26 07:02:45;;;;;;;;;;;2.70;85.40;;;;;;5091717;28;19991;-35
2023/01/26 07:05:10;;;;;;;;;;;2.70;85.50;;;;;;5091648;28;19912;-39
2023/01/26 07:07:36;;;;;;;;;;;2.70;85.50;;;;;;5091583;28;19915;-37
2023/01/26 07:10:02;;;;;;;;;;;2.70;85.50;;;;;;5091711;28;19908;-37
2023/01/26 07:12:36;;;;;;;;;;;2.70;85.50;;;;;;5091755;28;20393;-37
2023/01/26 07:15:02;;;;;;;;;;;2.80;85.50;;;;;;5091612;28;19915;-37
2023/01/26 07:17:27;;;;;;;;;;;2.70;85.30;;;;;;5091546;28;19920;-37
2023/01/26 07:19:53;;;;;;;;;;;2.70;85.40;;;;;;5091851;28;19919;-37
2023/01/26 07:22:18;;;;;;;;;;;2.70;85.50;;;;;;5091539;28;19914;-37
2023/01/26 07:24:43;;;;;;;;;;;2.70;85.50;;;;;;5091691;28;19908;-36
2023/01/26 07:27:09;;;;;;;;;;;2.70;85.50;;;;;;5091857;28;19912;-38
2023/01/26 07:29:34;;;;;;;;;;;2.80;85.60;;;;;;5091475;28;19954;-36
2023/01/26 07:32:00;;;;;;;;;;;2.70;85.50;;;;;;5091455;28;20360;-39
2023/01/26 07:34:25;;;;;;;;;;;2.70;85.60;;;;;;5091492;28;19908;-34
2023/01/26 07:36:51;;;;;;;;;;;2.80;85.70;;;;;;5091463;28;19915;-44
2023/01/26 07:39:17;;;;;;;;;;;2.80;85.60;;;;;;5091418;28;19995;-37
2023/01/26 07:41:42;;;;;;;;;;;2.80;85.60;;;;;;5091429;28;20348;-35
2023/01/26 07:44:08;;;;;;;;;;;2.80;85.60;;;;;;5091719;28;19916;-43
2023/01/26 07:46:34;;;;;;;;;;;2.80;85.50;;;;;;5091277;28;20305;-41
2023/01/26 07:48:59;;;;;;;;;;;2.80;85.60;;;;;;5091319;28;19914;-37
2023/01/26 07:51:25;;;;;;;;;;;2.80;85.60;;;;;;5091650;28;20352;-36
2023/01/26 07:53:50;;;;;;;;;;;2.90;85.70;;;;;;5095367;28;19908;-37
2023/01/26 07:56:19;;;;;;;;;;;2.80;85.60;;;;;;5094894;28;19912;-37
2023/01/26 07:58:47;;;;;;;;;;;2.90;85.70;;;;;;5095397;28;19908;-36
2023/01/26 08:01:13;;;;;;;;;;;2.90;85.70;;;;;;5094874;28;19912;-36
2023/01/26 08:03:39;;;;;;;;;;;2.90;85.70;;;;;;5094887;28;20354;-36
2023/01/26 08:06:05;;;;;;;;;;;2.90;85.70;;;;;;5094955;28;19984;-35
2023/01/26 08:08:31;;;;;;;;;;;2.90;85.80;;;;;;5095035;28;20305;-38
2023/01/26 08:10:59;;;;;;;;;;;2.90;85.70;;;;;;5094932;28;19912;-36
2023/01/26 08:13:25;;;;;;;;;;;2.90;85.60;;;;;;5094647;28;19938;-37
2023/01/26 08:15:51;;;;;;;;;;;2.90;85.70;;;;;;5094520;28;19908;-37
2023/01/26 08:18:16;;;;;;;;;;;2.90;85.70;;;;;;5094638;28;20385;-38
2023/01/26 08:20:48;;;;;;;;;;;2.90;85.80;;;;;;5094717;28;19934;-44
2023/01/26 08:23:13;;;;;;;;;;;2.90;85.80;;;;;;5094446;28;19915;-36
2023/01/26 08:25:39;;;;;;;;;;;2.90;85.80;;;;;;5094282;28;20355;-46
2023/01/26 08:28:04;;;;;;;;;;;2.90;85.80;;;;;;5094319;28;19997;-36
2023/01/26 08:30:29;;;;;;;;;;;2.90;85.90;;;;;;5094493;28;19909;-43
2023/01/26 08:32:55;;;;;;;;;;;2.90;86.00;;;;;;5094482;28;19916;-34
2023/01/26 08:35:20;;;;;;;;;;;2.90;86.00;;;;;;5094220;28;19912;-37
2023/01/26 08:37:46;;;;;;;;;;;2.80;85.90;;;;;;5094487;28;19934;-36
2023/01/26 08:40:11;;;;;;;;;;;2.80;86.00;;;;;;5094004;28;19912;-37
2023/01/26 08:42:37;;;;;;;;;;;2.90;86.20;;;;;;5094215;28;20003;-37
2023/01/26 08:45:02;;;;;;;;;;;2.90;86.20;;;;;;5094154;28;19954;-34
2023/01/26 08:47:28;;;;;;;;;;;3.00;86.10;;;;;;5094177;28;20003;-36
2023/01/26 08:49:53;;;;;;;;;;;3.00;86.10;;;;;;5094100;28;20279;-35
2023/01/26 08:52:20;;;;;;;;;;;3.00;86.10;;;;;;5093980;28;19915;-36
2023/01/26 08:54:46;;;;;;;;;;;3.00;86.30;;;;;;5094272;28;19977;-35
2023/01/26 08:57:11;;;;;;;;;;;2.90;86.40;;;;;;5093936;28;20114;-38
2023/01/26 08:59:37;;;;;;;;;;;2.90;86.60;;;;;;5094066;28;20303;-46
2023/01/26 09:02:02;;;;;;;;;;;2.90;86.50;;;;;;5094280;28;19908;-38
2023/01/26 09:04:27;;;;;;;;;;;2.90;86.70;;;;;;5092996;28;19961;-35
2023/01/26 09:06:53;;;;;;;;;;;2.90;87.00;;;;;;5093730;28;19909;-35
2023/01/26 09:09:18;;;;;;;;;;;2.80;87.10;;;;;;5093389;28;19915;-35
2023/01/26 09:11:44;;;;;;;;;;;2.80;87.20;;;;;;5093889;28;20010;-40
2023/01/26 09:14:09;;;;;;;;;;;2.80;87.30;;;;;;5093531;28;20382;-35
2023/01/26 09:16:35;;;;;;;;;;;2.80;87.60;;;;;;5093551;28;19927;-34
2023/01/26 09:19:00;;;;;;;;;;;2.80;87.60;;;;;;5093412;28;20364;-35
2023/01/26 09:21:26;;;;;;;;;;;2.80;87.60;;;;;;5093535;28;19918;-35
2023/01/26 09:23:51;;;;;;;;;;;2.80;87.60;;;;;;5093399;28;19908;-35
2023/01/26 09:26:17;;;;;;;;;;;2.80;87.60;;;;;;5093281;28;19921;-35
2023/01/26 09:28:42;;;;;;;;;;;2.80;87.70;;;;;;5093338;28;19955;-34
2023/01/26 09:31:09;;;;;;;;;;;2.90;87.90;;;;;;5093011;28;20387;-34
2023/01/26 09:33:35;;;;;;;;;;;2.90;88.00;;;;;;5093086;28;19954;-32
2023/01/26 09:36:04;;;;;;;;;;;2.90;88.30;;;;;;5093144;28;19908;-39
2023/01/26 09:38:30;;;;;;;;;;;2.90;88.30;;;;;;5093329;28;19915;-36
2023/01/26 09:41:14;;;;;;;;;;;2.80;88.70;;;;;;5093003;28;19912;-36
2023/01/26 09:43:44;;;;;;;;;;;2.80;88.50;;;;;;5092878;28;19908;-45
2023/01/26 09:46:21;;;;;;;;;;;2.80;88.60;;;;;;5092841;28;19940;-36
2023/01/26 09:49:02;;;;;;;;;;;2.80;88.70;;;;;;5092735;28;19935;-34
2023/01/26 09:51:35;;;;;;;;;;;2.80;88.70;;;;;;5093033;28;19934;-36
2023/01/26 09:54:39;;;;;;;;;;;2.80;88.70;;;;;;5092888;28;19908;-35
2023/01/26 09:57:13;;;;;;;;;;;2.80;89.10;;;;;;5029963;28;19910;-32
2023/01/26 09:59:45;;;;;;;;;;;2.80;89.60;;;;;;5029981;28;20004;-33
2023/01/26 10:02:18;;;;;;;;;;;2.80;89.50;;;;;;5065100;28;20261;-36
2023/01/26 10:04:46;;;;;;;;;;;2.90;89.70;;;;;;5092666;28;20340;-43
2023/01/26 10:07:13;;;;;;;;;;;2.90;90.10;;;;;;5092430;28;19912;-42
2023/01/26 10:09:39;;;;;;;;;;;2.90;90.00;;;;;;5092347;28;19908;-33
2023/01/26 10:12:07;;;;;;;;;;;3.00;90.00;;;;;;5092413;28;19908;-32
2023/01/26 10:14:41;;;;;;;;;;;3.00;90.20;;;;;;5092364;28;19908;-35
2023/01/26 10:17:33;;;;;;;;;;;3.00;90.20;;;;;;5092195;28;19924;-33
2023/01/26 10:20:02;;;;;;;;;;;3.10;90.40;;;;;;5089087;28;19912;-33
2023/01/26 10:22:50;;;;;;;;;;;3.10;90.30;;;;;;5092171;28;19916;-33
2023/01/26 10:25:22;;;;;;;;;;;3.10;90.10;;;;;;5083807;28;19908;-32
2023/01/26 10:27:48;;;;;;;;;;;3.20;90.20;;;;;;5092695;28;19915;-40
2023/01/26 10:30:14;;;;;;;;;;;3.20;90.30;;;;;;5092368;28;19908;-35
2023/01/26 10:32:41;;;;;;;;;;;3.20;90.50;;;;;;5092049;28;20003;-35
2023/01/26 10:35:14;;;;;;;;;;;3.30;90.40;;;;;;5091946;28;19912;-33
2023/01/26 10:37:39;;;;;;;;;;;3.30;90.40;;;;;;5091936;28;20426;-34
2023/01/26 10:40:06;;;;;;;;;;;3.30;90.40;;;;;;5091757;28;19995;-36
2023/01/26 10:42:32;;;;;;;;;;;3.40;90.50;;;;;;5092132;28;19912;-34
2023/01/26 10:45:00;;;;;;;;;;;3.40;90.50;;;;;;5091806;28;19972;-34
2023/01/26 10:47:26;;;;;;;;;;;3.40;90.50;;;;;;5090444;28;19908;-35
2023/01/26 10:49:52;;;;;;;;;;;3.40;90.60;;;;;;5091828;28;19908;-35
2023/01/26 10:52:20;;;;;;;;;;;3.40;90.50;;;;;;5091788;28;19916;-34
2023/01/26 10:54:46;;;;;;;;;;;3.40;90.70;;;;;;5091931;28;20332;-35
2023/01/26 10:57:23;;;;;;;;;;;3.50;90.80;;;;;;5091957;28;19915;-35
2023/01/26 10:59:50;;;;;;;;;;;3.40;90.50;;;;;;5091453;28;20386;-34
2023/01/26 11:02:19;;;;;;;;;;;3.50;90.60;;;;;;5090367;28;19915;-35
2023/01/26 11:05:00;;;;;;;;;;;3.50;90.70;;;;;;5091998;28;19938;-33
2023/01/26 11:07:27;;;;;;;;;;;3.60;90.70;;;;;;5091839;28;19969;-35
2023/01/26 11:09:53;;;;;;;;;;;3.60;90.70;;;;;;5091722;28;19940;-37
2023/01/26 11:12:20;;;;;;;;;;;3.70;90.80;;;;;;5091807;28;19915;-35
2023/01/26 11:14:58;;;;;;;;;;;3.70;90.70;;;;;;5091635;28;20411;-43
2023/01/26 11:17:24;;;;;;;;;;;3.80;90.70;;;;;;5091558;28;19920;-35
2023/01/26 11:19:55;;;;;;;;;;;3.90;91.00;;;;;;5091461;28;19935;-35
2023/01/26 11:22:27;;;;;;;;;;;3.90;91.00;;;;;;5091480;28;19948;-35
2023/01/26 11:24:52;;;;;;;;;;;3.90;90.90;;;;;;5091392;28;19954;-36
2023/01/26 11:27:37;;;;;;;;;;;4.00;90.90;;;;;;5093223;28;19912;-38
2023/01/26 11:30:08;;;;;;;;;;;4.10;90.90;;;;;;5095438;28;19909;-42
2023/01/26 11:32:34;;;;;;;;;;;4.20;91.00;;;;;;5095434;28;19957;-35
2023/01/26 11:35:06;;;;;;;;;;;4.20;91.00;;;;;;5095385;28;20363;-43
2023/01/26 11:37:41;;;;;;;;;;;4.30;91.00;;;;;;5095344;28;19939;-42
2023/01/26 11:40:06;;;;;;;;;;;4.30;91.00;;;;;;5094983;28;20016;-39
2023/01/26 11:42:37;;;;;;;;;;;4.50;91.00;;;;;;5095258;28;20007;-37
2023/01/26 11:45:26;;;;;;;;;;;4.50;91.30;;;;;;5095220;28;19961;-42
2023/01/26 11:47:58;;;;;;;;;;;4.60;91.20;;;;;;5094924;28;19915;-41
2023/01/26 11:50:23;;;;;;;;;;;4.70;91.10;;;;;;5093626;28;19974;-41
2023/01/26 11:53:01;;;;;;;;;;;4.70;91.00;;;;;;5094898;28;19949;-33
2023/01/26 11:55:46;;;;;;;;;;;4.80;91.10;;;;;;5094888;28;19936;-35
2023/01/26 11:58:24;;;;;;;;;;;4.90;91.30;;;;;;5095047;28;20336;-36
2023/01/26 12:01:01;;;;;;;;;;;5.10;91.00;;;;;;5094696;28;19973;-35
2023/01/26 12:03:32;;;;;;;;;;;5.20;90.90;;;;;;5094857;28;20343;-35
2023/01/26 12:06:00;;;;;;;;;;;5.30;91.10;;;;;;5094645;28;19999;-35
2023/01/26 12:08:37;;;;;;;;;;;5.40;91.10;;;;;;5094911;28;19922;-35
2023/01/26 12:11:22;;;;;;;;;;;5.60;91.00;;;;;;5094620;28;19908;-37
2023/01/26 12:13:59;;;;;;;;;;;5.70;90.90;;;;;;5094352;28;19912;-34
2023/01/26 12:16:45;;;;;;;;;;;5.80;91.00;;;;;;5094491;28;19921;-35
2023/01/26 12:19:31;;;;;;;;;;;6.00;90.90;;;;;;5094550;28;19949;-35
2023/01/26 12:22:01;;;;;;;;;;;6.10;90.80;;;;;;5052605;28;19916;-36
2023/01/26 12:24:34;;;;;;;;;;;6.20;90.70;;;;;;5094466;28;19908;-35
2023/01/26 12:27:02;;;;;;;;;;;6.40;90.70;;;;;;5094339;28;19908;-36
2023/01/26 12:29:34;;;;;;;;;;;6.50;90.80;;;;;;5094367;28;19908;-35
2023/01/26 12:32:04;;;;;;;;;;;6.60;90.60;;;;;;5094673;28;19912;-37
2023/01/26 12:34:32;;;;;;;;;;;6.70;90.80;;;;;;5094234;28;19916;-34
2023/01/26 12:36:57;;;;;;;;;;;6.90;90.60;;;;;;5094415;28;19948;-35
2023/01/26 12:39:22;;;;;;;;;;;7.00;90.60;;;;;;5092729;28;20264;-37
2023/01/26 12:41:58;;;;;;;;;;;7.10;90.50;;;;;;5094124;28;20335;-35
2023/01/26 12:44:35;;;;;;;;;;;7.20;90.40;;;;;;5094340;28;19965;-36
2023/01/26 12:47:08;;;;;;;;;;;7.30;90.30;;;;;;5094023;28;20002;-36
2023/01/26 12:49:37;;;;;;;;;;;7.40;90.50;;;;;;5092607;28;19916;-36
2023/01/26 12:52:07;;;;;;;;;;;7.40;90.40;;;;;;5093905;28;19908;-36
2023/01/26 12:54:38;;;;;;;;;;;7.40;90.40;;;;;;5093712;28;19919;-36
2023/01/26 12:57:05;;;;;;;;;;;7.50;90.40;;;;;;5093902;28;19919;-36
2023/01/26 12:59:33;;;;;;;;;;;7.50;90.30;;;;;;5093686;28;19915;-36
2023/01/26 13:01:59;;;;;;;;;;;7.60;90.20;;;;;;5093692;28;19990;-35
2023/01/26 13:04:25;;;;;;;;;;;7.60;90.20;;;;;;5093690;28;19916;-36
2023/01/26 13:07:02;;;;;;;;;;;7.60;90.10;;;;;;5093618;28;20282;-35
2023/01/26 13:09:27;;;;;;;;;;;7.70;90.10;;;;;;5093631;28;19916;-35
2023/01/26 13:11:54;;;;;;;;;;;7.60;90.10;;;;;;5093836;28;19923;-37
2023/01/26 13:14:26;;;;;;;;;;;7.60;90.10;;;;;;5093501;28;19957;-35
2023/01/26 13:16:52;;;;;;;;;;;7.60;90.10;;;;;;5093273;28;19978;-34
2023/01/26 13:19:40;;;;;;;;;;;7.70;90.00;;;;;;5091920;28;19916;-35
2023/01/26 13:22:18;;;;;;;;;;;7.70;89.90;;;;;;5084857;28;19981;-41
2023/01/26 13:24:45;;;;;;;;;;;7.80;89.80;;;;;;5093692;28;19908;-38
2023/01/26 13:27:26;;;;;;;;;;;7.90;89.50;;;;;;5093327;28;20367;-35
2023/01/26 13:29:54;;;;;;;;;;;8.00;89.40;;;;;;5093367;28;19908;-38
2023/01/26 13:32:19;;;;;;;;;;;8.00;89.30;;;;;;5093147;28;20322;-34
2023/01/26 13:34:59;;;;;;;;;;;8.00;89.00;;;;;;5093505;28;19908;-37
2023/01/26 13:37:27;;;;;;;;;;;8.00;89.00;;;;;;5093049;28;20365;-37
2023/01/26 13:39:57;;;;;;;;;;;8.00;89.10;;;;;;5092805;28;19934;-36
2023/01/26 13:42:30;;;;;;;;;;;8.00;89.60;;;;;;5093061;28;19908;-37
2023/01/26 13:44:57;;;;;;;;;;;8.00;88.90;;;;;;5092935;28;19908;-35
2023/01/26 13:47:27;;;;;;;;;;;8.00;88.60;;;;;;5093219;28;19963;-36
2023/01/26 13:49:52;;;;;;;;;;;8.00;88.50;;;;;;5092536;28;19938;-37
2023/01/26 13:52:22;;;;;;;;;;;8.00;88.60;;;;;;5093105;28;19908;-35
2023/01/26 13:54:49;;;;;;;;;;;7.90;88.40;;;;;;5092841;28;19999;-34
2023/01/26 13:57:41;;;;;;;;;;;7.90;88.00;;;;;;5093007;28;19952;-37
2023/01/26 14:00:10;;;;;;;;;;;7.90;88.40;;;;;;5089396;28;19916;-31
2023/01/26 14:02:37;;;;;;;;;;;7.90;88.40;;;;;;5092960;28;19939;-33
2023/01/26 14:05:03;;;;;;;;;;;7.90;88.50;;;;;;5092678;28;19908;-36
2023/01/26 14:07:33;;;;;;;;;;;7.90;88.50;;;;;;5092771;28;19915;-32
2023/01/26 14:09:59;;;;;;;;;;;7.90;88.40;;;;;;5092408;28;19908;-34
2023/01/26 14:13:02;;;;;;;;;;;7.90;88.40;;;;;;5092484;28;20060;-35
2023/01/26 14:15:29;;;;;;;;;;;7.90;88.50;;;;;;5029853;28;19992;-35
2023/01/26 14:17:59;;;;;;;;;;;8.00;88.50;;;;;;5080121;28;19920;-36
2023/01/26 14:20:24;;;;;;;;;;;8.00;88.20;;;;;;5092296;28;19969;-35
2023/01/26 14:23:12;;;;;;;;;;;8.10;88.10;;;;;;5092240;28;20286;-36
2023/01/26 14:25:38;;;;;;;;;;;8.10;88.00;;;;;;5092483;28;19912;-33
2023/01/26 14:28:04;;;;;;;;;;;8.10;88.00;;;;;;5092197;28;19912;-34
2023/01/26 14:30:32;;;;;;;;;;;8.10;87.80;;;;;;5092405;28;19916;-33
2023/01/26 14:32:57;;;;;;;;;;;8.20;87.60;;;;;;5092433;28;20343;-35
2023/01/26 14:35:23;;;;;;;;;;;8.10;87.30;;;;;;5092049;28;19912;-35
2023/01/26 14:37:49;;;;;;;;;;;8.10;86.80;;;;;;5092109;28;19919;-34
2023/01/26 14:40:14;;;;;;;;;;;8.10;87.40;;;;;;5092133;28;19916;-36
2023/01/26 14:42:41;;;;;;;;;;;8.00;87.30;;;;;;5091986;28;19999;-38
2023/01/26 14:45:11;;;;;;;;;;;8.00;87.10;;;;;;5091929;28;20047;-33
2023/01/26 14:47:36;;;;;;;;;;;8.00;87.00;;;;;;5092200;28;20298;-34
2023/01/26 14:50:04;;;;;;;;;;;8.00;86.90;;;;;;5092111;28;19919;-35
2023/01/26 14:52:36;;;;;;;;;;;7.90;86.90;;;;;;5091857;28;19919;-34
2023/01/26 14:55:05;;;;;;;;;;;7.90;86.70;;;;;;5092047;28;20264;-37
2023/01/26 14:57:30;;;;;;;;;;;7.90;86.80;;;;;;5091883;28;19938;-35
2023/01/26 14:59:57;;;;;;;;;;;8.00;87.00;;;;;;5091694;28;19920;-35
2023/01/26 15:02:35;;;;;;;;;;;8.00;86.00;;;;;;5093937;28;19969;-37
2023/01/26 15:05:00;;;;;;;;;;;8.00;86.30;;;;;;5096022;28;19961;-34
2023/01/26 15:07:33;;;;;;;;;;;7.90;86.50;;;;;;5095801;28;20012;-33
2023/01/26 15:09:58;;;;;;;;;;;7.90;86.50;;;;;;5095823;28;19912;-34
2023/01/26 15:12:24;;;;;;;;;;;7.90;86.40;;;;;;5096044;28;19912;-34
2023/01/26 15:14:50;;;;;;;;;;;7.90;85.80;;;;;;5096131;28;19919;-35
2023/01/26 15:17:29;;;;;;;;;;;7.90;86.00;;;;;;5094343;28;20334;-37
2023/01/26 15:19:54;;;;;;;;;;;7.90;86.00;;;;;;5095881;28;20382;-35
2023/01/26 15:22:22;;;;;;;;;;;7.90;86.00;;;;;;5095940;28;19919;-33
2023/01/26 15:24:58;;;;;;;;;;;7.90;85.40;;;;;;5095686;28;20341;-35
2023/01/26 15:27:28;;;;;;;;;;;7.80;85.60;;;;;;5096124;28;19912;-35
2023/01/26 15:29:58;;;;;;;;;;;7.80;85.60;;;;;;5095511;28;19935;-35